sensor_id;sensor_type;location;lat;lon;timestamp;P1;durP1;ratioP1;P2;durP2;ratioP2
19043;SDS011;9654;52.302;8.120;2023-02-08T00:00:37;39.67;;;21.83;;
19043;SDS011;9654;52.302;8.120;2023-02-08T00:03:04;42.53;;;21.47;;
19043;SDS011;9654;52.302;8.120;2023-02-08T00:05:32;39.17;;;19.53;;
19043;SDS011;9654;52.302;8.120;2023-02-08T00:07:59;41.53;;;21.03;;
19043;SDS011;9654;52.302;8.120;2023-02-08T00:10:25;38.23;;;19.97;;
19043;SDS011;9654;52.302;8.120;2023-02-08T00:12:52;41.87;;;20.37;;
19043;SDS011;9654;52.302;8.120;2023-02-08T00:15:19;38.97;;;20.73;;
19043;SDS011;9654;52.302;8.120;2023-02-08T00:17:46;43.57;;;20.27;;
19043;SDS011;9654;52.302;8.120;2023-02-08T00:20:13;53.10;;;27.40;;
19043;SDS011;9654;52.302;8.120;2023-02-08T00:22:41;64.40;;;30.60;;
19043;SDS011;9654;52.302;8.120;2023-02-08T00:25:08;55.40;;;25.47;;
19043;SDS011;9654;52.302;8.120;2023-02-08T00:27:35;61.50;;;27.40;;
19043;SDS011;9654;52.302;8.120;2023-02-08T00:30:02;102.80;;;40.83;;
19043;SDS011;9654;52.302;8.120;2023-02-08T00:32:29;73.20;;;32.73;;
19043;SDS011;9654;52.302;8.120;2023-02-08T00:34:56;58.93;;;26.50;;
19043;SDS011;9654;52.302;8.120;2023-02-08T00:37:23;52.77;;;23.20;;
19043;SDS011;9654;52.302;8.120;2023-02-08T00:39:51;46.07;;;21.67;;
19043;SDS011;9654;52.302;8.120;2023-02-08T00:42:17;43.97;;;21.27;;
19043;SDS011;9654;52.302;8.120;2023-02-08T00:44:44;49.47;;;22.60;;
19043;SDS011;9654;52.302;8.120;2023-02-08T00:47:11;45.53;;;21.00;;
19043;SDS011;9654;52.302;8.120;2023-02-08T00:49:37;43.83;;;21.00;;
19043;SDS011;9654;52.302;8.120;2023-02-08T00:52:04;39.50;;;18.70;;
19043;SDS011;9654;52.302;8.120;2023-02-08T00:54:31;32.83;;;16.90;;
19043;SDS011;9654;52.302;8.120;2023-02-08T00:56:59;34.67;;;17.17;;
19043;SDS011;9654;52.302;8.120;2023-02-08T00:59:26;29.90;;;15.93;;
19043;SDS011;9654;52.302;8.120;2023-02-08T01:01:52;34.40;;;17.00;;
19043;SDS011;9654;52.302;8.120;2023-02-08T01:04:19;33.37;;;16.63;;
19043;SDS011;9654;52.302;8.120;2023-02-08T01:06:46;30.90;;;16.67;;
19043;SDS011;9654;52.302;8.120;2023-02-08T01:09:13;35.13;;;16.80;;
19043;SDS011;9654;52.302;8.120;2023-02-08T01:11:39;31.57;;;16.83;;
19043;SDS011;9654;52.302;8.120;2023-02-08T01:14:08;30.07;;;14.73;;
19043;SDS011;9654;52.302;8.120;2023-02-08T01:16:35;30.60;;;14.90;;
19043;SDS011;9654;52.302;8.120;2023-02-08T01:19:02;32.00;;;15.10;;
19043;SDS011;9654;52.302;8.120;2023-02-08T01:21:30;31.20;;;15.73;;
19043;SDS011;9654;52.302;8.120;2023-02-08T01:23:59;35.90;;;16.50;;
19043;SDS011;9654;52.302;8.120;2023-02-08T01:26:26;29.33;;;16.23;;
19043;SDS011;9654;52.302;8.120;2023-02-08T01:28:53;34.50;;;16.37;;
19043;SDS011;9654;52.302;8.120;2023-02-08T01:31:23;30.23;;;15.13;;
19043;SDS011;9654;52.302;8.120;2023-02-08T01:33:52;33.37;;;16.70;;
19043;SDS011;9654;52.302;8.120;2023-02-08T01:36:18;29.80;;;15.60;;
19043;SDS011;9654;52.302;8.120;2023-02-08T01:38:45;33.63;;;17.20;;
19043;SDS011;9654;52.302;8.120;2023-02-08T01:41:13;30.10;;;15.97;;
19043;SDS011;9654;52.302;8.120;2023-02-08T01:44:00;32.13;;;15.97;;
19043;SDS011;9654;52.302;8.120;2023-02-08T01:46:30;34.63;;;16.67;;
19043;SDS011;9654;52.302;8.120;2023-02-08T01:48:58;34.13;;;17.13;;
19043;SDS011;9654;52.302;8.120;2023-02-08T01:51:28;29.27;;;15.97;;
19043;SDS011;9654;52.302;8.120;2023-02-08T01:53:57;36.17;;;16.53;;
19043;SDS011;9654;52.302;8.120;2023-02-08T01:56:27;28.33;;;15.87;;
19043;SDS011;9654;52.302;8.120;2023-02-08T01:58:58;34.77;;;16.47;;
19043;SDS011;9654;52.302;8.120;2023-02-08T02:01:29;32.50;;;16.27;;
19043;SDS011;9654;52.302;8.120;2023-02-08T02:03:57;28.83;;;16.10;;
19043;SDS011;9654;52.302;8.120;2023-02-08T02:06:27;33.43;;;17.20;;
19043;SDS011;9654;52.302;8.120;2023-02-08T02:09:00;35.17;;;16.77;;
19043;SDS011;9654;52.302;8.120;2023-02-08T02:11:32;37.67;;;16.93;;
19043;SDS011;9654;52.302;8.120;2023-02-08T02:13:59;31.53;;;16.73;;
19043;SDS011;9654;52.302;8.120;2023-02-08T02:16:26;32.43;;;16.60;;
19043;SDS011;9654;52.302;8.120;2023-02-08T02:18:54;34.07;;;15.43;;
19043;SDS011;9654;52.302;8.120;2023-02-08T02:21:28;28.80;;;14.93;;
19043;SDS011;9654;52.302;8.120;2023-02-08T02:24:10;32.50;;;15.23;;
19043;SDS011;9654;52.302;8.120;2023-02-08T02:37:47;32.20;;;16.00;;
19043;SDS011;9654;52.302;8.120;2023-02-08T02:40:25;34.57;;;15.83;;
19043;SDS011;9654;52.302;8.120;2023-02-08T02:43:03;30.27;;;14.70;;
19043;SDS011;9654;52.302;8.120;2023-02-08T02:45:55;35.23;;;15.10;;
19043;SDS011;9654;52.302;8.120;2023-02-08T02:48:29;29.73;;;14.53;;
19043;SDS011;9654;52.302;8.120;2023-02-08T02:51:01;28.57;;;14.67;;
19043;SDS011;9654;52.302;8.120;2023-02-08T02:53:38;29.90;;;15.33;;
19043;SDS011;9654;52.302;8.120;2023-02-08T02:56:12;31.70;;;14.70;;
19043;SDS011;9654;52.302;8.120;2023-02-08T02:58:42;26.40;;;13.53;;
19043;SDS011;9654;52.302;8.120;2023-02-08T03:01:10;26.07;;;13.87;;
19043;SDS011;9654;52.302;8.120;2023-02-08T03:03:37;30.23;;;14.60;;
19043;SDS011;9654;52.302;8.120;2023-02-08T03:06:05;30.10;;;14.80;;
19043;SDS011;9654;52.302;8.120;2023-02-08T03:08:48;29.07;;;14.87;;
19043;SDS011;9654;52.302;8.120;2023-02-08T03:11:34;27.10;;;14.53;;
19043;SDS011;9654;52.302;8.120;2023-02-08T03:14:05;27.47;;;15.70;;
19043;SDS011;9654;52.302;8.120;2023-02-08T03:16:53;30.80;;;15.00;;
19043;SDS011;9654;52.302;8.120;2023-02-08T03:19:44;30.27;;;14.70;;
19043;SDS011;9654;52.302;8.120;2023-02-08T03:22:18;26.80;;;14.00;;
19043;SDS011;9654;52.302;8.120;2023-02-08T03:24:50;28.53;;;14.10;;
19043;SDS011;9654;52.302;8.120;2023-02-08T03:27:21;30.17;;;15.13;;
19043;SDS011;9654;52.302;8.120;2023-02-08T03:29:58;32.00;;;15.67;;
19043;SDS011;9654;52.302;8.120;2023-02-08T03:32:30;29.00;;;15.30;;
19043;SDS011;9654;52.302;8.120;2023-02-08T03:35:04;29.97;;;14.23;;
19043;SDS011;9654;52.302;8.120;2023-02-08T03:37:35;33.03;;;15.63;;
19043;SDS011;9654;52.302;8.120;2023-02-08T03:40:08;29.83;;;14.63;;
19043;SDS011;9654;52.302;8.120;2023-02-08T03:42:37;30.50;;;15.50;;
19043;SDS011;9654;52.302;8.120;2023-02-08T03:45:06;34.03;;;15.77;;
19043;SDS011;9654;52.302;8.120;2023-02-08T03:47:38;30.50;;;15.80;;
19043;SDS011;9654;52.302;8.120;2023-02-08T03:50:09;29.67;;;14.97;;
19043;SDS011;9654;52.302;8.120;2023-02-08T03:52:41;32.57;;;16.87;;
19043;SDS011;9654;52.302;8.120;2023-02-08T03:55:12;30.20;;;15.17;;
19043;SDS011;9654;52.302;8.120;2023-02-08T03:57:43;36.10;;;16.53;;
19043;SDS011;9654;52.302;8.120;2023-02-08T04:00:15;28.77;;;14.80;;
19043;SDS011;9654;52.302;8.120;2023-02-08T04:02:46;29.70;;;15.50;;
19043;SDS011;9654;52.302;8.120;2023-02-08T04:05:18;25.90;;;13.60;;
19043;SDS011;9654;52.302;8.120;2023-02-08T04:07:46;32.43;;;14.67;;
19043;SDS011;9654;52.302;8.120;2023-02-08T04:10:15;32.50;;;15.73;;
19043;SDS011;9654;52.302;8.120;2023-02-08T04:12:42;28.60;;;15.43;;
19043;SDS011;9654;52.302;8.120;2023-02-08T04:15:09;33.30;;;17.30;;
19043;SDS011;9654;52.302;8.120;2023-02-08T04:17:36;41.10;;;20.30;;
19043;SDS011;9654;52.302;8.120;2023-02-08T04:20:03;40.87;;;19.47;;
19043;SDS011;9654;52.302;8.120;2023-02-08T04:22:30;36.37;;;18.60;;
19043;SDS011;9654;52.302;8.120;2023-02-08T04:24:57;32.40;;;16.40;;
19043;SDS011;9654;52.302;8.120;2023-02-08T04:27:25;29.50;;;14.67;;
19043;SDS011;9654;52.302;8.120;2023-02-08T04:29:52;33.97;;;16.83;;
19043;SDS011;9654;52.302;8.120;2023-02-08T04:32:19;32.30;;;16.43;;
19043;SDS011;9654;52.302;8.120;2023-02-08T04:34:45;30.33;;;15.23;;
19043;SDS011;9654;52.302;8.120;2023-02-08T04:37:12;29.93;;;15.97;;
19043;SDS011;9654;52.302;8.120;2023-02-08T04:39:39;37.37;;;15.80;;
19043;SDS011;9654;52.302;8.120;2023-02-08T04:42:06;30.43;;;15.87;;
19043;SDS011;9654;52.302;8.120;2023-02-08T04:44:36;36.77;;;16.37;;
19043;SDS011;9654;52.302;8.120;2023-02-08T04:47:02;29.10;;;15.10;;
19043;SDS011;9654;52.302;8.120;2023-02-08T04:49:29;28.40;;;14.43;;
19043;SDS011;9654;52.302;8.120;2023-02-08T04:51:56;29.33;;;15.23;;
19043;SDS011;9654;52.302;8.120;2023-02-08T04:54:23;31.77;;;15.70;;
19043;SDS011;9654;52.302;8.120;2023-02-08T04:56:49;35.43;;;17.07;;
19043;SDS011;9654;52.302;8.120;2023-02-08T04:59:16;31.57;;;16.13;;
19043;SDS011;9654;52.302;8.120;2023-02-08T05:01:45;31.13;;;15.90;;
19043;SDS011;9654;52.302;8.120;2023-02-08T05:04:11;35.83;;;15.63;;
19043;SDS011;9654;52.302;8.120;2023-02-08T05:06:38;30.63;;;15.50;;
19043;SDS011;9654;52.302;8.120;2023-02-08T05:09:05;31.17;;;15.50;;
19043;SDS011;9654;52.302;8.120;2023-02-08T05:11:33;29.17;;;15.17;;
19043;SDS011;9654;52.302;8.120;2023-02-08T05:14:00;36.73;;;17.00;;
19043;SDS011;9654;52.302;8.120;2023-02-08T05:16:26;31.60;;;15.77;;
19043;SDS011;9654;52.302;8.120;2023-02-08T05:18:55;33.13;;;15.20;;
19043;SDS011;9654;52.302;8.120;2023-02-08T05:21:22;30.17;;;15.37;;
19043;SDS011;9654;52.302;8.120;2023-02-08T05:23:49;28.60;;;15.13;;
19043;SDS011;9654;52.302;8.120;2023-02-08T05:26:16;33.00;;;15.83;;
19043;SDS011;9654;52.302;8.120;2023-02-08T05:28:43;33.33;;;15.10;;
19043;SDS011;9654;52.302;8.120;2023-02-08T05:31:11;32.10;;;16.07;;
19043;SDS011;9654;52.302;8.120;2023-02-08T05:33:39;32.60;;;15.53;;
19043;SDS011;9654;52.302;8.120;2023-02-08T05:36:07;30.77;;;15.60;;
19043;SDS011;9654;52.302;8.120;2023-02-08T05:38:34;36.43;;;16.33;;
19043;SDS011;9654;52.302;8.120;2023-02-08T05:41:01;30.67;;;15.80;;
19043;SDS011;9654;52.302;8.120;2023-02-08T05:43:28;30.33;;;15.13;;
19043;SDS011;9654;52.302;8.120;2023-02-08T05:45:55;34.90;;;16.67;;
19043;SDS011;9654;52.302;8.120;2023-02-08T05:48:22;31.83;;;16.07;;
19043;SDS011;9654;52.302;8.120;2023-02-08T05:50:48;33.10;;;15.80;;
19043;SDS011;9654;52.302;8.120;2023-02-08T05:53:16;33.37;;;15.57;;
19043;SDS011;9654;52.302;8.120;2023-02-08T05:55:43;31.30;;;16.20;;
19043;SDS011;9654;52.302;8.120;2023-02-08T05:58:11;30.20;;;14.83;;
19043;SDS011;9654;52.302;8.120;2023-02-08T06:00:38;34.63;;;16.80;;
19043;SDS011;9654;52.302;8.120;2023-02-08T06:03:04;36.03;;;16.73;;
19043;SDS011;9654;52.302;8.120;2023-02-08T06:05:32;30.90;;;14.53;;
19043;SDS011;9654;52.302;8.120;2023-02-08T06:07:58;31.63;;;14.87;;
19043;SDS011;9654;52.302;8.120;2023-02-08T06:10:26;30.67;;;15.40;;
19043;SDS011;9654;52.302;8.120;2023-02-08T06:12:53;34.37;;;16.27;;
19043;SDS011;9654;52.302;8.120;2023-02-08T06:15:20;30.60;;;15.27;;
19043;SDS011;9654;52.302;8.120;2023-02-08T06:17:47;32.03;;;15.67;;
19043;SDS011;9654;52.302;8.120;2023-02-08T06:20:13;31.33;;;15.80;;
19043;SDS011;9654;52.302;8.120;2023-02-08T06:22:40;37.47;;;17.07;;
19043;SDS011;9654;52.302;8.120;2023-02-08T06:25:07;34.53;;;16.30;;
19043;SDS011;9654;52.302;8.120;2023-02-08T06:27:35;41.23;;;17.13;;
19043;SDS011;9654;52.302;8.120;2023-02-08T06:30:02;36.37;;;17.20;;
19043;SDS011;9654;52.302;8.120;2023-02-08T06:32:30;35.20;;;17.20;;
19043;SDS011;9654;52.302;8.120;2023-02-08T06:34:57;37.70;;;17.20;;
19043;SDS011;9654;52.302;8.120;2023-02-08T06:37:24;34.73;;;17.20;;
19043;SDS011;9654;52.302;8.120;2023-02-08T06:39:50;31.60;;;16.63;;
19043;SDS011;9654;52.302;8.120;2023-02-08T06:42:17;36.93;;;16.73;;
19043;SDS011;9654;52.302;8.120;2023-02-08T06:44:45;36.70;;;16.33;;
19043;SDS011;9654;52.302;8.120;2023-02-08T06:47:14;38.37;;;17.60;;
19043;SDS011;9654;52.302;8.120;2023-02-08T06:49:41;34.33;;;16.30;;
19043;SDS011;9654;52.302;8.120;2023-02-08T06:52:07;35.30;;;17.20;;
19043;SDS011;9654;52.302;8.120;2023-02-08T06:54:34;34.77;;;16.63;;
19043;SDS011;9654;52.302;8.120;2023-02-08T06:57:01;34.70;;;15.93;;
19043;SDS011;9654;52.302;8.120;2023-02-08T06:59:28;36.47;;;16.90;;
19043;SDS011;9654;52.302;8.120;2023-02-08T07:01:56;34.50;;;16.37;;
19043;SDS011;9654;52.302;8.120;2023-02-08T07:04:23;34.50;;;16.70;;
19043;SDS011;9654;52.302;8.120;2023-02-08T07:06:50;36.07;;;17.17;;
19043;SDS011;9654;52.302;8.120;2023-02-08T07:09:17;34.77;;;17.30;;
19043;SDS011;9654;52.302;8.120;2023-02-08T07:11:43;35.47;;;18.27;;
19043;SDS011;9654;52.302;8.120;2023-02-08T07:14:10;39.33;;;18.63;;
19043;SDS011;9654;52.302;8.120;2023-02-08T07:16:38;36.03;;;16.93;;
19043;SDS011;9654;52.302;8.120;2023-02-08T07:19:06;31.77;;;16.03;;
19043;SDS011;9654;52.302;8.120;2023-02-08T07:21:33;36.13;;;17.07;;
19043;SDS011;9654;52.302;8.120;2023-02-08T07:24:00;36.27;;;16.97;;
19043;SDS011;9654;52.302;8.120;2023-02-08T07:26:27;37.40;;;16.23;;
19043;SDS011;9654;52.302;8.120;2023-02-08T07:28:53;36.13;;;16.67;;
19043;SDS011;9654;52.302;8.120;2023-02-08T07:31:20;33.00;;;16.80;;
19043;SDS011;9654;52.302;8.120;2023-02-08T07:33:47;35.10;;;16.50;;
19043;SDS011;9654;52.302;8.120;2023-02-08T07:36:15;31.17;;;15.37;;
19043;SDS011;9654;52.302;8.120;2023-02-08T07:38:42;35.93;;;16.13;;
19043;SDS011;9654;52.302;8.120;2023-02-08T07:41:09;35.10;;;15.57;;
19043;SDS011;9654;52.302;8.120;2023-02-08T07:43:37;32.70;;;15.23;;
19043;SDS011;9654;52.302;8.120;2023-02-08T07:46:05;32.07;;;16.40;;
19043;SDS011;9654;52.302;8.120;2023-02-08T07:48:33;34.70;;;15.50;;
19043;SDS011;9654;52.302;8.120;2023-02-08T07:51:00;34.17;;;15.93;;
19043;SDS011;9654;52.302;8.120;2023-02-08T07:53:29;31.23;;;14.73;;
19043;SDS011;9654;52.302;8.120;2023-02-08T07:55:56;30.77;;;14.60;;
19043;SDS011;9654;52.302;8.120;2023-02-08T07:58:23;32.03;;;15.07;;
19043;SDS011;9654;52.302;8.120;2023-02-08T08:00:49;28.43;;;14.90;;
19043;SDS011;9654;52.302;8.120;2023-02-08T08:03:16;31.27;;;15.13;;
19043;SDS011;9654;52.302;8.120;2023-02-08T08:05:43;35.07;;;15.70;;
19043;SDS011;9654;52.302;8.120;2023-02-08T08:08:10;27.17;;;14.57;;
19043;SDS011;9654;52.302;8.120;2023-02-08T08:10:39;32.07;;;15.37;;
19043;SDS011;9654;52.302;8.120;2023-02-08T08:13:06;27.57;;;14.67;;
19043;SDS011;9654;52.302;8.120;2023-02-08T08:15:33;29.77;;;15.13;;
19043;SDS011;9654;52.302;8.120;2023-02-08T08:18:00;28.50;;;14.17;;
19043;SDS011;9654;52.302;8.120;2023-02-08T08:20:26;26.37;;;13.60;;
19043;SDS011;9654;52.302;8.120;2023-02-08T08:22:53;29.27;;;14.07;;
19043;SDS011;9654;52.302;8.120;2023-02-08T08:25:20;24.27;;;12.83;;
19043;SDS011;9654;52.302;8.120;2023-02-08T08:27:48;24.63;;;12.73;;
19043;SDS011;9654;52.302;8.120;2023-02-08T08:30:15;26.70;;;13.90;;
19043;SDS011;9654;52.302;8.120;2023-02-08T08:32:42;27.60;;;13.93;;
19043;SDS011;9654;52.302;8.120;2023-02-08T08:35:09;28.63;;;13.57;;
19043;SDS011;9654;52.302;8.120;2023-02-08T08:37:36;30.50;;;12.87;;
19043;SDS011;9654;52.302;8.120;2023-02-08T08:40:03;25.87;;;13.03;;
19043;SDS011;9654;52.302;8.120;2023-02-08T08:42:31;24.87;;;13.47;;
19043;SDS011;9654;52.302;8.120;2023-02-08T08:45:00;23.80;;;12.37;;
19043;SDS011;9654;52.302;8.120;2023-02-08T08:47:26;21.30;;;11.90;;
19043;SDS011;9654;52.302;8.120;2023-02-08T08:49:53;25.90;;;13.43;;
19043;SDS011;9654;52.302;8.120;2023-02-08T08:52:20;23.50;;;12.47;;
19043;SDS011;9654;52.302;8.120;2023-02-08T08:54:47;29.97;;;12.60;;
19043;SDS011;9654;52.302;8.120;2023-02-08T08:57:14;26.63;;;13.10;;
19043;SDS011;9654;52.302;8.120;2023-02-08T08:59:41;26.10;;;12.67;;
19043;SDS011;9654;52.302;8.120;2023-02-08T09:02:10;25.67;;;13.57;;
19043;SDS011;9654;52.302;8.120;2023-02-08T09:04:37;25.90;;;13.60;;
19043;SDS011;9654;52.302;8.120;2023-02-08T09:07:05;23.10;;;13.00;;
19043;SDS011;9654;52.302;8.120;2023-02-08T09:09:32;26.93;;;12.97;;
19043;SDS011;9654;52.302;8.120;2023-02-08T09:12:00;23.83;;;12.73;;
19043;SDS011;9654;52.302;8.120;2023-02-08T09:14:27;24.40;;;12.80;;
19043;SDS011;9654;52.302;8.120;2023-02-08T09:16:53;23.47;;;12.17;;
19043;SDS011;9654;52.302;8.120;2023-02-08T09:19:22;26.67;;;12.50;;
19043;SDS011;9654;52.302;8.120;2023-02-08T09:21:48;20.87;;;12.00;;
19043;SDS011;9654;52.302;8.120;2023-02-08T09:24:15;23.40;;;11.83;;
19043;SDS011;9654;52.302;8.120;2023-02-08T09:26:43;22.50;;;11.83;;
19043;SDS011;9654;52.302;8.120;2023-02-08T09:29:10;20.10;;;11.00;;
19043;SDS011;9654;52.302;8.120;2023-02-08T09:31:37;21.60;;;11.20;;
19043;SDS011;9654;52.302;8.120;2023-02-08T09:34:05;21.33;;;11.63;;
19043;SDS011;9654;52.302;8.120;2023-02-08T09:36:34;24.47;;;12.23;;
19043;SDS011;9654;52.302;8.120;2023-02-08T09:39:03;24.53;;;12.13;;
19043;SDS011;9654;52.302;8.120;2023-02-08T09:41:36;19.90;;;11.73;;
19043;SDS011;9654;52.302;8.120;2023-02-08T09:44:15;22.10;;;12.43;;
19043;SDS011;9654;52.302;8.120;2023-02-08T09:46:50;22.10;;;10.87;;
19043;SDS011;9654;52.302;8.120;2023-02-08T09:49:25;20.50;;;11.40;;
19043;SDS011;9654;52.302;8.120;2023-02-08T09:51:59;23.73;;;11.43;;
19043;SDS011;9654;52.302;8.120;2023-02-08T09:54:29;19.77;;;11.00;;
19043;SDS011;9654;52.302;8.120;2023-02-08T09:57:00;19.37;;;11.20;;
19043;SDS011;9654;52.302;8.120;2023-02-08T09:59:31;21.33;;;11.30;;
19043;SDS011;9654;52.302;8.120;2023-02-08T10:01:59;20.17;;;10.57;;
19043;SDS011;9654;52.302;8.120;2023-02-08T10:04:36;17.23;;;10.37;;
19043;SDS011;9654;52.302;8.120;2023-02-08T10:07:10;18.80;;;9.77;;
19043;SDS011;9654;52.302;8.120;2023-02-08T10:09:38;19.87;;;10.40;;
19043;SDS011;9654;52.302;8.120;2023-02-08T10:12:09;16.93;;;9.97;;
19043;SDS011;9654;52.302;8.120;2023-02-08T10:14:49;21.57;;;10.37;;
19043;SDS011;9654;52.302;8.120;2023-02-08T10:20:35;18.40;;;9.97;;
19043;SDS011;9654;52.302;8.120;2023-02-08T10:23:15;21.20;;;9.73;;
19043;SDS011;9654;52.302;8.120;2023-02-08T10:26:05;17.20;;;9.00;;
19043;SDS011;9654;52.302;8.120;2023-02-08T10:28:46;16.17;;;9.37;;
19043;SDS011;9654;52.302;8.120;2023-02-08T10:31:43;17.13;;;10.70;;
19043;SDS011;9654;52.302;8.120;2023-02-08T10:34:19;18.40;;;9.97;;
19043;SDS011;9654;52.302;8.120;2023-02-08T10:36:55;15.73;;;9.37;;
19043;SDS011;9654;52.302;8.120;2023-02-08T10:39:24;16.10;;;9.60;;
19043;SDS011;9654;52.302;8.120;2023-02-08T10:41:54;18.67;;;10.00;;
19043;SDS011;9654;52.302;8.120;2023-02-08T10:44:23;15.90;;;9.17;;
19043;SDS011;9654;52.302;8.120;2023-02-08T10:46:55;20.77;;;10.80;;
19043;SDS011;9654;52.302;8.120;2023-02-08T10:49:34;16.77;;;10.20;;
19043;SDS011;9654;52.302;8.120;2023-02-08T10:52:09;19.70;;;10.20;;
19043;SDS011;9654;52.302;8.120;2023-02-08T10:54:37;18.33;;;10.37;;
19043;SDS011;9654;52.302;8.120;2023-02-08T10:57:05;22.33;;;11.00;;
19043;SDS011;9654;52.302;8.120;2023-02-08T10:59:37;16.60;;;10.00;;
19043;SDS011;9654;52.302;8.120;2023-02-08T11:02:16;17.07;;;10.50;;
19043;SDS011;9654;52.302;8.120;2023-02-08T11:04:56;16.33;;;9.43;;
19043;SDS011;9654;52.302;8.120;2023-02-08T11:07:24;17.87;;;9.93;;
19043;SDS011;9654;52.302;8.120;2023-02-08T11:09:52;19.87;;;10.03;;
19043;SDS011;9654;52.302;8.120;2023-02-08T11:12:19;17.30;;;9.90;;
19043;SDS011;9654;52.302;8.120;2023-02-08T11:14:48;15.50;;;9.77;;
19043;SDS011;9654;52.302;8.120;2023-02-08T11:17:22;17.20;;;9.07;;
19043;SDS011;9654;52.302;8.120;2023-02-08T11:19:52;14.97;;;9.40;;
19043;SDS011;9654;52.302;8.120;2023-02-08T11:22:19;16.73;;;10.03;;
19043;SDS011;9654;52.302;8.120;2023-02-08T11:24:55;16.77;;;9.50;;
19043;SDS011;9654;52.302;8.120;2023-02-08T11:27:30;16.77;;;9.43;;
19043;SDS011;9654;52.302;8.120;2023-02-08T11:32:46;17.50;;;10.50;;
19043;SDS011;9654;52.302;8.120;2023-02-08T11:37:51;18.00;;;9.73;;
19043;SDS011;9654;52.302;8.120;2023-02-08T11:40:22;20.10;;;10.30;;
19043;SDS011;9654;52.302;8.120;2023-02-08T11:42:51;16.17;;;9.80;;
19043;SDS011;9654;52.302;8.120;2023-02-08T11:45:20;23.07;;;9.70;;
19043;SDS011;9654;52.302;8.120;2023-02-08T11:47:49;15.50;;;9.07;;
19043;SDS011;9654;52.302;8.120;2023-02-08T11:50:20;18.57;;;9.17;;
19043;SDS011;9654;52.302;8.120;2023-02-08T11:52:53;15.20;;;8.17;;
19043;SDS011;9654;52.302;8.120;2023-02-08T11:55:25;13.60;;;8.37;;
19043;SDS011;9654;52.302;8.120;2023-02-08T11:57:54;13.17;;;7.37;;
19043;SDS011;9654;52.302;8.120;2023-02-08T12:00:26;13.60;;;7.57;;
19043;SDS011;9654;52.302;8.120;2023-02-08T12:02:54;13.87;;;7.57;;
19043;SDS011;9654;52.302;8.120;2023-02-08T12:05:27;12.37;;;6.77;;
19043;SDS011;9654;52.302;8.120;2023-02-08T12:08:15;13.77;;;7.70;;
19043;SDS011;9654;52.302;8.120;2023-02-08T12:10:54;13.23;;;7.27;;
19043;SDS011;9654;52.302;8.120;2023-02-08T12:13:48;10.70;;;6.97;;
19043;SDS011;9654;52.302;8.120;2023-02-08T12:16:29;10.47;;;6.83;;
19043;SDS011;9654;52.302;8.120;2023-02-08T12:22:09;10.47;;;7.00;;
19043;SDS011;9654;52.302;8.120;2023-02-08T12:24:42;12.20;;;6.10;;
19043;SDS011;9654;52.302;8.120;2023-02-08T12:27:19;10.00;;;6.67;;
19043;SDS011;9654;52.302;8.120;2023-02-08T12:30:01;9.03;;;6.37;;
19043;SDS011;9654;52.302;8.120;2023-02-08T12:35:46;9.67;;;6.90;;
19043;SDS011;9654;52.302;8.120;2023-02-08T12:38:30;9.97;;;5.73;;
19043;SDS011;9654;52.302;8.120;2023-02-08T12:41:26;11.83;;;6.70;;
19043;SDS011;9654;52.302;8.120;2023-02-08T12:44:00;12.53;;;7.40;;
19043;SDS011;9654;52.302;8.120;2023-02-08T12:46:46;13.13;;;7.47;;
19043;SDS011;9654;52.302;8.120;2023-02-08T12:52:11;11.83;;;6.83;;
19043;SDS011;9654;52.302;8.120;2023-02-08T12:54:45;11.10;;;6.73;;
19043;SDS011;9654;52.302;8.120;2023-02-08T12:57:18;10.30;;;6.50;;
19043;SDS011;9654;52.302;8.120;2023-02-08T12:59:50;10.33;;;6.23;;
19043;SDS011;9654;52.302;8.120;2023-02-08T13:02:21;9.97;;;6.60;;
19043;SDS011;9654;52.302;8.120;2023-02-08T13:04:52;9.40;;;6.77;;
19043;SDS011;9654;52.302;8.120;2023-02-08T13:07:26;14.93;;;7.17;;
19043;SDS011;9654;52.302;8.120;2023-02-08T13:09:59;11.07;;;6.63;;
19043;SDS011;9654;52.302;8.120;2023-02-08T13:12:31;7.90;;;5.47;;
19043;SDS011;9654;52.302;8.120;2023-02-08T13:15:05;10.03;;;5.50;;
19043;SDS011;9654;52.302;8.120;2023-02-08T13:17:41;9.40;;;6.07;;
19043;SDS011;9654;52.302;8.120;2023-02-08T13:20:21;6.97;;;4.83;;
19043;SDS011;9654;52.302;8.120;2023-02-08T13:22:59;9.80;;;6.20;;
19043;SDS011;9654;52.302;8.120;2023-02-08T13:25:29;9.57;;;5.90;;
19043;SDS011;9654;52.302;8.120;2023-02-08T13:27:59;12.07;;;6.30;;
19043;SDS011;9654;52.302;8.120;2023-02-08T13:30:29;12.30;;;6.73;;
19043;SDS011;9654;52.302;8.120;2023-02-08T13:33:10;9.73;;;6.00;;
19043;SDS011;9654;52.302;8.120;2023-02-08T13:35:42;11.13;;;5.90;;
19043;SDS011;9654;52.302;8.120;2023-02-08T13:38:17;8.83;;;5.40;;
19043;SDS011;9654;52.302;8.120;2023-02-08T13:41:00;9.77;;;5.77;;
19043;SDS011;9654;52.302;8.120;2023-02-08T13:43:33;9.50;;;5.83;;
19043;SDS011;9654;52.302;8.120;2023-02-08T13:46:05;10.63;;;5.63;;
19043;SDS011;9654;52.302;8.120;2023-02-08T13:48:40;8.47;;;5.00;;
19043;SDS011;9654;52.302;8.120;2023-02-08T13:54:18;7.00;;;5.23;;
19043;SDS011;9654;52.302;8.120;2023-02-08T13:56:45;9.93;;;5.20;;
19043;SDS011;9654;52.302;8.120;2023-02-08T13:59:24;9.07;;;5.67;;
19043;SDS011;9654;52.302;8.120;2023-02-08T14:02:17;8.37;;;5.40;;
19043;SDS011;9654;52.302;8.120;2023-02-08T14:04:51;9.53;;;4.83;;
19043;SDS011;9654;52.302;8.120;2023-02-08T14:07:24;10.97;;;4.63;;
19043;SDS011;9654;52.302;8.120;2023-02-08T14:12:57;9.27;;;4.47;;
19043;SDS011;9654;52.302;8.120;2023-02-08T14:15:29;17.30;;;5.80;;
19043;SDS011;9654;52.302;8.120;2023-02-08T14:18:13;17.93;;;4.73;;
19043;SDS011;9654;52.302;8.120;2023-02-08T14:20:54;11.33;;;6.07;;
19043;SDS011;9654;52.302;8.120;2023-02-08T14:23:26;15.70;;;5.30;;
19043;SDS011;9654;52.302;8.120;2023-02-08T14:25:57;20.30;;;10.43;;
19043;SDS011;9654;52.302;8.120;2023-02-08T14:28:29;30.30;;;16.73;;
19043;SDS011;9654;52.302;8.120;2023-02-08T14:31:03;12.40;;;6.97;;
19043;SDS011;9654;52.302;8.120;2023-02-08T14:33:36;7.40;;;5.20;;
19043;SDS011;9654;52.302;8.120;2023-02-08T14:36:05;11.03;;;5.10;;
19043;SDS011;9654;52.302;8.120;2023-02-08T14:38:52;8.17;;;5.37;;
19043;SDS011;9654;52.302;8.120;2023-02-08T14:50:25;10.97;;;6.47;;
19043;SDS011;9654;52.302;8.120;2023-02-08T14:53:02;13.30;;;6.63;;
19043;SDS011;9654;52.302;8.120;2023-02-08T14:55:33;7.67;;;5.10;;
19043;SDS011;9654;52.302;8.120;2023-02-08T14:58:04;11.13;;;5.57;;
19043;SDS011;9654;52.302;8.120;2023-02-08T15:00:34;8.87;;;5.40;;
19043;SDS011;9654;52.302;8.120;2023-02-08T15:03:03;8.67;;;5.27;;
19043;SDS011;9654;52.302;8.120;2023-02-08T15:05:34;8.07;;;5.60;;
19043;SDS011;9654;52.302;8.120;2023-02-08T15:08:06;14.60;;;9.93;;
19043;SDS011;9654;52.302;8.120;2023-02-08T15:10:33;10.73;;;5.40;;
19043;SDS011;9654;52.302;8.120;2023-02-08T15:13:01;9.17;;;5.20;;
19043;SDS011;9654;52.302;8.120;2023-02-08T15:15:33;8.27;;;5.00;;
19043;SDS011;9654;52.302;8.120;2023-02-08T15:18:02;7.17;;;4.73;;
19043;SDS011;9654;52.302;8.120;2023-02-08T15:20:31;9.43;;;5.70;;
19043;SDS011;9654;52.302;8.120;2023-02-08T15:23:01;10.70;;;5.23;;
19043;SDS011;9654;52.302;8.120;2023-02-08T15:25:30;10.53;;;5.83;;
19043;SDS011;9654;52.302;8.120;2023-02-08T15:27:58;8.60;;;5.07;;
19043;SDS011;9654;52.302;8.120;2023-02-08T15:30:28;8.47;;;5.07;;
19043;SDS011;9654;52.302;8.120;2023-02-08T15:32:57;10.10;;;5.50;;
19043;SDS011;9654;52.302;8.120;2023-02-08T15:35:25;10.43;;;5.50;;
19043;SDS011;9654;52.302;8.120;2023-02-08T15:37:55;8.93;;;5.33;;
19043;SDS011;9654;52.302;8.120;2023-02-08T15:40:24;11.70;;;5.07;;
19043;SDS011;9654;52.302;8.120;2023-02-08T15:42:52;9.87;;;5.50;;